Time;durP1;ratioP1;P1;durP2;ratioP2;P2;SDS_P1;SDS_P2;PMS_P1;PMS_P2;Temp;Humidity;BMP_temperature;BMP_pressure;BME280_temperature;BME280_humidity;BME280_pressure;Samples;Min_cycle;Max_cycle;Signal;HPM_P1;HPM_P2
2023/10/29 00:01:09;;;;;;;1.45;0.50;;;;;;;18.10;49.82;92472.84;6099760;23;20021;-91
2023/10/29 00:03:35;;;;;;;0.40;0.35;;;;;;;18.15;49.48;92485.66;6161511;23;20018;-91
2023/10/29 00:06:01;;;;;;;1.15;0.30;;;;;;;18.14;49.42;92486.19;6100378;23;20026;-90
2023/10/29 00:08:26;;;;;;;1.00;0.50;;;;;;;18.12;49.41;92485.97;6123899;23;20017;-89
2023/10/29 00:10:51;;;;;;;0.30;0.30;;;;;;;18.10;49.52;92486.50;6100641;23;20076;-94
2023/10/29 00:13:17;;;;;;;0.65;0.32;;;;;;;18.14;49.46;92484.19;6124419;23;20037;-90
2023/10/29 00:15:42;;;;;;;1.20;0.40;;;;;;;18.09;49.93;92492.50;6091836;23;20014;-92
2023/10/29 00:18:14;;;;;;;1.15;0.40;;;;;;;18.10;49.55;92478.31;6123664;23;20017;-90
2023/10/29 00:20:40;;;;;;;1.52;0.32;;;;;;;18.13;49.34;92490.19;6103123;23;20017;-91
2023/10/29 00:23:05;;;;;;;0.50;0.40;;;;;;;18.10;49.77;92478.31;6099758;23;20017;-90
2023/10/29 00:25:31;;;;;;;1.13;0.52;;;;;;;18.12;49.45;92469.56;6100470;23;20374;-91
2023/10/29 00:27:56;;;;;;;1.35;0.40;;;;;;;18.09;49.72;92465.91;6100061;23;20017;-90
2023/10/29 00:30:22;;;;;;;1.83;0.95;;;;;;;18.10;49.80;92469.38;6099513;23;20014;-91
2023/10/29 00:32:47;;;;;;;0.40;0.40;;;;;;;18.09;49.62;92468.63;6100286;23;20099;-89
2023/10/29 00:35:13;;;;;;;1.45;0.40;;;;;;;18.10;49.49;92456.44;6104046;23;20017;-89
2023/10/29 00:37:38;;;;;;;0.70;0.28;;;;;;;18.08;49.46;92464.44;6110374;23;20025;-88
2023/10/29 00:40:04;;;;;;;0.32;0.30;;;;;;;18.07;49.80;92473.16;6123234;23;20009;-90
2023/10/29 00:42:30;;;;;;;0.80;0.50;;;;;;;18.10;50.08;92469.38;6124881;23;20032;-91
2023/10/29 00:44:55;;;;;;;0.57;0.30;;;;;;;18.11;49.37;92468.84;6148233;23;20392;-88
2023/10/29 00:47:21;;;;;;;1.05;0.50;;;;;;;18.11;49.32;92465.38;6127981;23;20076;-92
2023/10/29 00:49:46;;;;;;;0.57;0.30;;;;;;;18.11;49.44;92457.91;6105435;23;20017;-91
2023/10/29 00:52:13;;;;;;;0.73;0.60;;;;;;;18.13;49.71;92457.38;6128503;23;20013;-89
2023/10/29 00:54:38;;;;;;;1.00;0.28;;;;;;;18.09;49.85;92449.50;6154008;23;20040;-92
2023/10/29 00:57:04;;;;;;;0.52;0.32;;;;;;;18.08;49.66;92458.22;6104196;23;20024;-91
2023/10/29 00:59:30;;;;;;;0.50;0.30;;;;;;;18.08;49.57;92456.22;6116928;23;20024;-91
2023/10/29 01:01:55;;;;;;;0.73;0.52;;;;;;;18.07;49.87;92452.00;6104816;23;20013;-92
2023/10/29 01:04:22;;;;;;;0.50;0.30;;;;;;;18.09;49.60;92451.50;6100389;23;20020;-90
2023/10/29 01:06:48;;;;;;;0.52;0.38;;;;;;;18.11;49.39;92438.03;6124097;23;20345;-91
2023/10/29 01:09:14;;;;;;;0.35;0.30;;;;;;;18.06;49.52;92445.06;6099373;23;20145;-90
2023/10/29 01:11:39;;;;;;;0.63;0.35;;;;;;;18.07;49.24;92437.59;6099650;23;20427;-90
2023/10/29 01:14:05;;;;;;;0.40;0.20;;;;;;;18.08;49.63;92439.81;6098961;23;20017;-89
2023/10/29 01:16:30;;;;;;;0.63;0.45;;;;;;;18.07;49.41;92443.81;6148773;23;20013;-90
2023/10/29 01:18:57;;;;;;;0.40;0.30;;;;;;;18.11;49.88;92438.03;6123920;23;20033;-93
2023/10/29 01:21:23;;;;;;;0.30;0.20;;;;;;;18.08;49.10;92428.88;6099147;23;20025;-91
2023/10/29 01:23:48;;;;;;;0.40;0.40;;;;;;;18.08;49.53;92428.13;6148505;23;20018;-90
2023/10/29 01:26:13;;;;;;;1.02;0.93;;;;;;;18.10;49.57;92418.13;6123022;23;20025;-91
2023/10/29 01:28:39;;;;;;;0.77;0.40;;;;;;;18.11;49.59;92424.34;6124294;23;20014;-89
2023/10/29 01:31:06;;;;;;;0.40;0.30;;;;;;;18.08;49.31;92420.66;6122331;23;20022;-90
2023/10/29 01:33:31;;;;;;;0.63;0.40;;;;;;;18.11;49.42;92422.34;6119255;23;20016;-91
2023/10/29 01:35:57;;;;;;;4.18;0.40;;;;;;;18.12;49.67;92431.28;6152750;23;20033;-92
2023/10/29 01:38:22;;;;;;;0.32;0.20;;;;;;;18.10;49.53;92436.53;6157771;23;20043;-89
2023/10/29 01:40:48;;;;;;;0.45;0.32;;;;;;;18.10;49.37;92433.81;6132999;23;20060;-90
2023/10/29 01:43:14;;;;;;;1.00;0.50;;;;;;;18.08;49.58;92428.88;6133105;23;20135;-91
2023/10/29 01:45:39;;;;;;;0.30;0.20;;;;;;;18.06;49.54;92431.41;6157800;23;20024;-90
2023/10/29 01:48:05;;;;;;;0.63;0.38;;;;;;;18.07;49.60;92419.19;6157660;23;20185;-89
2023/10/29 01:50:30;;;;;;;0.68;0.52;;;;;;;18.12;49.24;92431.28;6157970;23;20036;-91
2023/10/29 01:52:57;;;;;;;0.20;0.20;;;;;;;18.09;49.26;92433.06;6134164;23;20023;-90
2023/10/29 01:55:22;;;;;;;0.75;0.35;;;;;;;18.06;49.49;92427.94;6158012;23;21485;-92
2023/10/29 01:57:47;;;;;;;0.82;0.40;;;;;;;18.05;49.60;92431.94;6157965;23;20020;-91
2023/10/29 02:00:13;;;;;;;0.57;0.30;;;;;;;18.07;49.31;92426.66;6156944;23;20507;-92
2023/10/29 02:02:39;;;;;;;1.42;0.55;;;;;;;18.07;49.51;92421.19;6182361;23;20017;-89
2023/10/29 02:05:04;;;;;;;0.57;0.30;;;;;;;18.04;49.63;92420.25;6157728;23;20318;-89
2023/10/29 02:07:30;;;;;;;1.05;0.55;;;;;;;18.04;49.46;92420.25;6158480;23;20012;-92
2023/10/29 02:09:56;;;;;;;0.30;0.20;;;;;;;18.06;49.48;92417.00;6134151;23;20249;-89
2023/10/29 02:12:21;;;;;;;0.40;0.30;;;;;;;18.06;49.28;92406.78;6157602;23;20013;-90
2023/10/29 02:14:46;;;;;;;0.22;0.20;;;;;;;18.02;49.56;92397.44;6157580;23;20016;-91
2023/10/29 02:17:12;;;;;;;0.93;0.73;;;;;;;18.04;49.41;92394.91;6157834;23;20017;-89
2023/10/29 02:19:38;;;;;;;0.50;0.30;;;;;;;18.02;49.64;92400.91;6133354;23;20111;-92
2023/10/29 02:22:03;;;;;;;0.60;0.40;;;;;;;18.04;49.19;92403.84;6157348;23;20016;-90
2023/10/29 02:24:29;;;;;;;0.30;0.30;;;;;;;18.03;49.42;92396.19;6133674;23;20015;-89
2023/10/29 02:26:54;;;;;;;1.13;0.40;;;;;;;18.04;49.61;92390.19;6157676;23;20020;-90
2023/10/29 02:29:20;;;;;;;0.68;0.45;;;;;;;18.04;49.46;92400.38;6157069;23;20020;-92
2023/10/29 02:31:45;;;;;;;0.88;0.30;;;;;;;18.04;49.49;92392.91;6144182;23;20040;-90
2023/10/29 02:34:11;;;;;;;0.55;0.28;;;;;;;18.04;49.42;92392.91;6098540;23;20049;-92
2023/10/29 02:36:37;;;;;;;0.93;0.63;;;;;;;18.08;49.37;92403.53;6148228;23;20390;-91
2023/10/29 02:39:02;;;;;;;0.90;0.30;;;;;;;18.01;49.65;92399.44;6122545;23;20017;-91
2023/10/29 02:41:28;;;;;;;0.30;0.20;;;;;;;18.04;49.39;92401.13;6098972;23;20393;-92
2023/10/29 02:43:55;;;;;;;1.00;0.30;;;;;;;18.03;49.31;92393.44;6123556;23;20017;-92
2023/10/29 02:46:20;;;;;;;0.40;0.30;;;;;;;18.02;49.45;92402.91;6099034;23;20025;-89
2023/10/29 02:48:46;;;;;;;0.50;0.22;;;;;;;18.03;49.24;92401.66;6099037;23;20021;-89
2023/10/29 02:51:12;;;;;;;0.30;0.22;;;;;;;18.01;49.10;92410.38;6108671;23;20029;-89
2023/10/29 02:53:37;;;;;;;0.55;0.30;;;;;;;18.04;49.48;92403.13;6123883;23;20021;-90
2023/10/29 02:56:03;;;;;;;0.55;0.35;;;;;;;18.08;49.14;92412.47;6098251;23;20457;-91
2023/10/29 02:58:28;;;;;;;0.65;0.28;;;;;;;18.07;49.44;92421.94;6075142;23;20025;-90
2023/10/29 03:01:05;;;;;;;0.63;0.40;;;;;;;18.03;49.50;92421.53;6098192;23;20055;-92
2023/10/29 03:03:31;;;;;;;0.95;0.40;;;;;;;18.05;49.38;92418.25;6099304;23;20018;-90
2023/10/29 03:06:06;;;;;;;0.10;0.10;;;;;;;18.03;49.31;92432.47;6074836;23;20349;-91
2023/10/29 03:08:32;;;;;;;0.75;0.20;;;;;;;18.02;49.17;92436.47;6102031;23;20100;-90
2023/10/29 03:10:58;;;;;;;0.47;0.30;;;;;;;18.04;49.28;92428.47;6100174;23;20010;-90
2023/10/29 03:13:23;;;;;;;0.82;0.40;;;;;;;18.06;49.22;92420.47;6100276;23;20611;-90
2023/10/29 03:15:49;;;;;;;0.28;0.28;;;;;;;18.03;49.35;92424.25;6124943;23;20017;-91
2023/10/29 03:18:14;;;;;;;0.70;0.30;;;;;;;18.05;49.34;92421.00;6076261;23;20013;-89
2023/10/29 03:20:40;;;;;;;0.65;0.20;;;;;;;18.02;49.27;92420.06;6100054;23;20413;-91
2023/10/29 03:23:05;;;;;;;0.40;0.35;;;;;;;18.01;49.55;92415.84;6076012;23;20033;-92
2023/10/29 03:25:31;;;;;;;0.43;0.30;;;;;;;18.03;49.29;92416.06;6137254;23;20073;-93
2023/10/29 03:27:56;;;;;;;0.50;0.30;;;;;;;18.05;49.32;92421.00;6100986;23;20024;-89
2023/10/29 03:30:22;;;;;;;0.40;0.30;;;;;;;18.02;49.40;92414.59;6075980;23;20026;-93
2023/10/29 03:32:47;;;;;;;0.20;0.20;;;;;;;18.06;49.19;92412.25;6124676;23;20025;-90
2023/10/29 03:35:12;;;;;;;1.27;0.30;;;;;;;18.03;49.38;92401.66;6129459;23;20085;-92
2023/10/29 03:37:38;;;;;;;0.30;0.25;;;;;;;18.00;49.41;92406.19;6106108;23;20013;-89
2023/10/29 03:40:06;;;;;;;0.45;0.40;;;;;;;18.02;49.30;92400.91;6104769;23;20021;-91
2023/10/29 03:42:31;;;;;;;0.30;0.30;;;;;;;18.02;49.29;92394.72;6130912;23;20032;-91
2023/10/29 03:45:00;;;;;;;0.70;0.25;;;;;;;18.00;49.49;92389.78;6105532;23;20013;-91
2023/10/29 03:47:25;;;;;;;0.40;0.20;;;;;;;17.98;49.30;92388.84;6129724;23;20028;-93
2023/10/29 03:49:51;;;;;;;0.30;0.30;;;;;;;18.01;49.37;92393.97;6129558;23;20016;-91
2023/10/29 03:52:18;;;;;;;2.15;0.20;;;;;;;18.01;49.38;92398.72;6128386;23;20379;-90
2023/10/29 03:54:44;;;;;;;0.57;0.20;;;;;;;18.01;49.29;92401.44;6130052;23;20076;-91
2023/10/29 03:57:10;;;;;;;0.35;0.30;;;;;;;18.02;49.23;92409.13;6129094;23;20013;-88
2023/10/29 03:59:35;;;;;;;1.52;0.28;;;;;;;17.98;49.46;92403.25;6130419;23;20063;-90
2023/10/29 04:02:01;;;;;;;0.22;0.20;;;;;;;17.98;49.93;92407.97;6129145;23;20017;-91
2023/10/29 04:04:26;;;;;;;0.45;0.20;;;;;;;18.02;49.14;92411.84;6104376;23;20021;-90
2023/10/29 04:06:52;;;;;;;0.68;0.32;;;;;;;18.01;49.55;92398.72;6129739;23;20013;-88
2023/10/29 04:09:17;;;;;;;0.20;0.20;;;;;;;17.98;49.32;92391.56;6128464;23;20346;-91
2023/10/29 04:11:43;;;;;;;1.05;0.38;;;;;;;18.02;49.63;92389.25;6105250;23;20441;-91
2023/10/29 04:14:08;;;;;;;0.68;0.20;;;;;;;18.00;49.53;92383.56;6129367;23;20515;-92
2023/10/29 04:16:34;;;;;;;0.47;0.40;;;;;;;18.04;49.11;92390.19;6105322;23;20021;-92
2023/10/29 04:18:59;;;;;;;0.25;0.20;;;;;;;17.98;49.14;92383.38;6105026;23;20017;-91
2023/10/29 04:21:25;;;;;;;0.50;0.30;;;;;;;18.03;49.05;92387.97;6104504;23;20025;-88
2023/10/29 04:23:50;;;;;;;0.28;0.28;;;;;;;18.02;49.06;92397.44;6129907;23;20346;-90
2023/10/29 04:26:16;;;;;;;1.00;0.30;;;;;;;17.98;49.50;92394.28;6129276;23;20451;-91
2023/10/29 04:28:41;;;;;;;0.55;0.20;;;;;;;18.00;49.50;92386.31;6153890;23;20021;-90
2023/10/29 04:31:06;;;;;;;0.77;0.30;;;;;;;18.00;49.39;92391.78;6103746;23;20028;-91
2023/10/29 04:33:32;;;;;;;0.38;0.30;;;;;;;17.96;49.13;92394.84;6103537;23;20281;-92
2023/10/29 04:35:58;;;;;;;0.30;0.20;;;;;;;17.98;49.53;92388.84;6128072;23;20013;-91
2023/10/29 04:38:23;;;;;;;0.20;0.20;;;;;;;18.01;49.30;92393.97;6103168;23;20020;-91
2023/10/29 04:40:49;;;;;;;0.52;0.30;;;;;;;17.97;49.38;92381.91;6103194;23;20009;-91
2023/10/29 04:43:14;;;;;;;0.52;0.32;;;;;;;18.01;49.26;92391.25;6126862;23;20021;-91
2023/10/29 04:45:39;;;;;;;0.40;0.20;;;;;;;18.00;49.37;92399.97;6107699;23;20022;-89
2023/10/29 04:48:06;;;;;;;0.40;0.35;;;;;;;17.98;49.24;92395.03;6121912;23;20021;-92
2023/10/29 04:50:31;;;;;;;0.98;0.40;;;;;;;18.00;49.18;92399.97;6098630;23;20014;-92
2023/10/29 04:52:58;;;;;;;0.77;0.30;;;;;;;17.99;49.21;92391.03;6121912;23;20355;-92
2023/10/29 04:55:23;;;;;;;0.68;0.20;;;;;;;17.97;49.48;92395.59;6146875;23;20315;-90
2023/10/29 04:57:49;;;;;;;0.30;0.20;;;;;;;18.00;49.03;92395.25;6122956;23;20048;-91
2023/10/29 05:00:14;;;;;;;0.50;0.20;;;;;;;18.00;49.00;92397.25;6097842;23;20568;-92
2023/10/29 05:02:40;;;;;;;0.32;0.30;;;;;;;17.99;49.05;92393.78;6122276;23;20459;-89
2023/10/29 05:05:06;;;;;;;0.40;0.20;;;;;;;18.00;49.03;92389.78;6122168;23;20015;-88
2023/10/29 05:07:33;;;;;;;0.20;0.20;;;;;;;17.98;49.34;92388.84;6122793;23;20447;-93
2023/10/29 05:09:59;;;;;;;0.98;0.25;;;;;;;18.02;49.11;92383.78;6122656;23;20044;-88
2023/10/29 05:12:24;;;;;;;1.25;0.35;;;;;;;17.99;49.36;92380.09;6121930;23;20449;-90
2023/10/29 05:14:51;;;;;;;0.22;0.20;;;;;;;17.99;48.90;92380.09;6123090;23;20389;-90
2023/10/29 05:17:17;;;;;;;0.50;0.40;;;;;;;17.95;49.34;92387.19;6121287;23;20025;-88
2023/10/29 05:19:43;;;;;;;1.67;0.32;;;;;;;17.96;49.26;92385.91;6098471;23;20033;-89
2023/10/29 05:22:08;;;;;;;0.28;0.20;;;;;;;18.02;48.98;92383.78;6146567;23;20018;-89
2023/10/29 05:24:34;;;;;;;0.50;0.20;;;;;;;17.99;49.38;92371.91;6147726;23;20024;-91
2023/10/29 05:26:59;;;;;;;0.32;0.30;;;;;;;18.02;48.89;92379.03;6122470;23;20031;-93
2023/10/29 05:29:26;;;;;;;0.47;0.15;;;;;;;17.96;49.07;92375.72;6097962;23;20013;-92
2023/10/29 05:31:51;;;;;;;0.65;0.30;;;;;;;17.98;48.94;92377.88;6098593;23;1129308;-91
2023/10/29 05:34:17;;;;;;;0.25;0.20;;;;;;;17.98;49.17;92380.63;6118901;23;20039;-90
2023/10/29 05:36:42;;;;;;;0.30;0.20;;;;;;;17.99;49.24;92371.16;6128796;23;20024;-89
2023/10/29 05:39:08;;;;;;;1.75;0.47;;;;;;;17.97;48.99;92384.66;6153964;23;20496;-91
2023/10/29 05:41:34;;;;;;;0.38;0.20;;;;;;;17.97;49.01;92374.44;6127045;23;20433;-92
2023/10/29 05:43:59;;;;;;;0.40;0.20;;;;;;;18.01;49.04;92380.31;6128976;23;20016;-92
2023/10/29 05:46:25;;;;;;;0.60;0.38;;;;;;;17.97;49.31;92379.19;6151412;23;20012;-91
2023/10/29 05:48:50;;;;;;;0.50;0.30;;;;;;;18.03;49.05;92372.31;6153937;23;20426;-89
2023/10/29 05:51:19;;;;;;;0.47;0.20;;;;;;;17.98;48.87;92372.44;6152556;23;20020;-89
2023/10/29 05:53:45;;;;;;;1.13;0.30;;;;;;;17.96;48.94;92366.78;6153628;23;20025;-90
2023/10/29 05:56:13;;;;;;;0.30;0.30;;;;;;;17.95;49.01;92370.78;6140041;23;20013;-90
2023/10/29 05:58:38;;;;;;;0.40;0.30;;;;;;;17.96;49.04;92364.78;6154015;23;20018;-91
2023/10/29 06:01:04;;;;;;;0.50;0.40;;;;;;;18.01;48.89;92363.16;6152733;23;20029;-90
2023/10/29 06:03:30;;;;;;;0.50;0.50;;;;;;;18.02;48.63;92370.09;6134086;23;20044;-89
2023/10/29 06:05:55;;;;;;;0.47;0.30;;;;;;;17.96;49.09;92364.78;6158136;23;20095;-91
2023/10/29 06:08:21;;;;;;;0.85;0.43;;;;;;;17.98;49.18;92386.09;6104745;23;20028;-90
2023/10/29 06:10:47;;;;;;;0.60;0.45;;;;;;;17.97;49.21;92388.09;6145402;23;20052;-90
2023/10/29 06:13:13;;;;;;;0.40;0.30;;;;;;;17.99;49.01;92393.78;6154388;23;20020;-90
2023/10/29 06:15:38;;;;;;;0.40;0.30;;;;;;;17.96;49.12;92388.66;6183056;23;20019;-90
2023/10/29 06:18:04;;;;;;;0.32;0.30;;;;;;;18.01;49.23;92399.44;6156690;23;20020;-91
2023/10/29 06:20:30;;;;;;;1.00;0.40;;;;;;;17.96;49.29;92388.66;6129021;23;20076;-92
2023/10/29 06:22:55;;;;;;;0.57;0.30;;;;;;;17.97;48.75;92396.28;6128253;23;20016;-91
2023/10/29 06:25:20;;;;;;;0.75;0.30;;;;;;;18.04;49.09;92394.91;6127858;23;20013;-89
2023/10/29 06:27:46;;;;;;;0.77;0.38;;;;;;;18.07;48.78;92391.84;6137107;23;20016;-92
2023/10/29 06:30:11;;;;;;;0.32;0.20;;;;;;;18.01;49.06;92398.72;6129758;23;20071;-90
2023/10/29 06:32:37;;;;;;;0.68;0.57;;;;;;;18.01;49.11;92404.19;6157983;23;20091;-89
2023/10/29 06:35:03;;;;;;;0.57;0.52;;;;;;;18.04;48.78;92403.84;6132330;23;20020;-92
2023/10/29 06:37:29;;;;;;;0.55;0.38;;;;;;;18.03;49.38;92399.66;6145815;23;20016;-91
2023/10/29 06:39:54;;;;;;;0.35;0.20;;;;;;;18.06;48.95;92397.84;6153243;23;20413;-90
2023/10/29 06:42:20;;;;;;;0.77;0.20;;;;;;;18.00;49.02;92389.78;6155646;23;20012;-91
2023/10/29 06:44:45;;;;;;;0.35;0.28;;;;;;;17.98;49.36;92389.56;6153114;23;20017;-90
2023/10/29 06:47:11;;;;;;;0.40;0.20;;;;;;;18.03;49.01;92388.72;6151882;23;20025;-90
2023/10/29 06:49:36;;;;;;;0.25;0.20;;;;;;;18.01;49.23;92393.97;6142721;23;20024;-90
2023/10/29 06:52:02;;;;;;;0.30;0.30;;;;;;;18.03;49.00;92394.19;6165266;23;20005;-90
2023/10/29 06:54:27;;;;;;;0.43;0.30;;;;;;;18.03;48.88;92385.97;6151385;23;20010;-90
2023/10/29 06:56:53;;;;;;;0.28;0.28;;;;;;;18.06;49.05;92384.91;6145979;23;20013;-89
2023/10/29 06:59:18;;;;;;;0.95;0.30;;;;;;;18.04;48.91;92398.38;6137755;23;20025;-91
2023/10/29 07:01:44;;;;;;;0.50;0.30;;;;;;;18.04;48.97;92397.66;6153417;23;20449;-92
2023/10/29 07:04:09;;;;;;;0.55;0.38;;;;;;;18.05;49.04;92401.84;6157123;23;20033;-91
2023/10/29 07:06:35;;;;;;;0.30;0.20;;;;;;;18.02;49.32;92395.44;6132471;23;20024;-90
2023/10/29 07:09:01;;;;;;;0.73;0.30;;;;;;;18.04;49.19;92403.84;6177394;23;20025;-90
2023/10/29 07:11:29;;;;;;;0.32;0.28;;;;;;;18.06;48.92;92420.47;6157240;23;20009;-92
2023/10/29 07:13:54;;;;;;;0.20;0.20;;;;;;;18.04;49.10;92411.31;6158884;23;20020;-90
2023/10/29 07:16:20;;;;;;;0.40;0.32;;;;;;;18.05;49.14;92415.53;6131864;23;20039;-91
2023/10/29 07:18:45;;;;;;;0.47;0.40;;;;;;;18.04;48.81;92414.06;6126520;23;20428;-89
2023/10/29 07:21:11;;;;;;;0.52;0.20;;;;;;;18.07;48.95;92408.25;6153083;23;20051;-89
2023/10/29 07:23:36;;;;;;;0.40;0.25;;;;;;;18.09;49.07;92405.00;6157874;23;20016;-91
2023/10/29 07:26:02;;;;;;;0.98;0.20;;;;;;;18.06;49.13;92415.00;6157405;23;20399;-93
2023/10/29 07:28:28;;;;;;;1.00;0.40;;;;;;;18.08;49.06;92417.19;6152295;23;20020;-91
2023/10/29 07:30:55;;;;;;;0.60;0.40;;;;;;;18.10;49.07;92414.66;6156540;23;20012;-91
2023/10/29 07:33:20;;;;;;;0.20;0.20;;;;;;;18.11;48.77;92411.41;6079461;23;20021;-93
2023/10/29 07:35:47;;;;;;;0.20;0.20;;;;;;;18.12;49.23;92396.47;6103756;23;20017;-89
2023/10/29 07:38:12;;;;;;;0.32;0.20;;;;;;;18.13;48.85;92400.66;6127603;23;20449;-89
2023/10/29 07:40:38;;;;;;;0.30;0.30;;;;;;;18.15;48.75;92409.06;6103189;23;20017;-91
2023/10/29 07:43:04;;;;;;;0.20;0.20;;;;;;;18.14;48.93;92402.13;6127870;23;20063;-91
2023/10/29 07:45:29;;;;;;;0.40;0.30;;;;;;;18.14;48.98;92404.13;6103564;23;20017;-91
2023/10/29 07:47:55;;;;;;;0.60;0.30;;;;;;;18.16;49.07;92396.13;6104194;23;20063;-91
2023/10/29 07:50:21;;;;;;;0.65;0.30;;;;;;;18.17;48.86;92394.13;6102271;23;20021;-92
2023/10/29 07:52:47;;;;;;;1.35;0.28;;;;;;;18.18;48.91;92393.59;6128004;23;20017;-89
2023/10/29 07:55:12;;;;;;;0.43;0.20;;;;;;;18.18;48.95;92395.59;6103877;23;20357;-91
2023/10/29 07:57:40;;;;;;;0.40;0.20;;;;;;;18.21;48.79;92384.31;6130819;23;20369;-92
2023/10/29 08:00:15;;;;;;;0.38;0.30;;;;;;;18.18;48.85;92387.41;6105954;23;20079;-90
2023/10/29 08:02:41;;;;;;;0.45;0.40;;;;;;;18.21;49.09;92384.31;6132452;23;20013;-88
2023/10/29 08:05:07;;;;;;;0.80;0.80;;;;;;;18.20;48.93;92382.84;6128837;23;20044;-91
2023/10/29 08:07:33;;;;;;;1.48;0.70;;;;;;;18.20;48.80;92396.50;6129526;23;20064;-90
2023/10/29 08:09:58;;;;;;;2.45;1.00;;;;;;;18.21;48.86;92384.31;6130465;23;20449;-88
2023/10/29 08:12:24;;;;;;;1.38;1.02;;;;;;;18.22;48.84;92379.56;6129244;23;20021;-92
2023/10/29 08:14:49;;;;;;;1.50;0.82;;;;;;;18.22;48.75;92379.56;6105668;23;20013;-91
2023/10/29 08:17:17;;;;;;;3.22;1.30;;;;;;;18.22;47.84;92374.09;6103587;23;20365;-88
2023/10/29 08:19:45;;;;;;;5.07;1.40;;;;;;;18.20;47.42;92380.09;6130114;23;20155;-88
2023/10/29 08:22:11;;;;;;;2.63;1.20;;;;;;;18.23;47.70;92386.50;6104330;23;20013;-90
2023/10/29 08:24:37;;;;;;;3.92;1.33;;;;;;;18.24;48.32;92383.25;6153235;23;20020;-90
2023/10/29 08:27:06;;;;;;;2.10;1.30;;;;;;;18.24;48.43;92377.75;6104499;23;20017;-89
2023/10/29 08:29:34;;;;;;;4.45;1.50;;;;;;;18.27;48.66;92370.50;6106081;23;20078;-90
2023/10/29 08:32:00;;;;;;;2.65;1.80;;;;;;;18.28;48.53;92371.97;6120979;23;20492;-88
2023/10/29 08:34:25;;;;;;;3.22;1.95;;;;;;;18.28;48.85;92369.97;6123638;23;20066;-88
2023/10/29 08:36:51;;;;;;;4.05;1.90;;;;;;;18.28;48.61;92359.03;6121438;23;20009;-90
2023/10/29 08:39:16;;;;;;;6.50;2.53;;;;;;;18.29;48.41;92376.16;6125146;23;20056;-88
2023/10/29 08:41:42;;;;;;;4.07;2.10;;;;;;;18.30;48.35;92372.16;6123807;23;20024;-88
2023/10/29 08:44:07;;;;;;;3.03;1.95;;;;;;;18.30;48.21;92375.63;6100329;23;20021;-91
2023/10/29 08:46:33;;;;;;;4.03;2.03;;;;;;;18.31;48.41;92362.69;6129047;23;20016;-89
2023/10/29 08:48:58;;;;;;;4.72;2.28;;;;;;;18.30;48.60;92372.16;6104551;23;20013;-89
2023/10/29 08:51:23;;;;;;;3.33;2.03;;;;;;;18.32;48.70;92364.16;6124316;23;20010;-88
2023/10/29 08:53:49;;;;;;;4.25;2.30;;;;;;;18.32;48.52;92356.69;6146218;23;20028;-90
2023/10/29 08:56:15;;;;;;;6.30;2.53;;;;;;;18.31;48.81;92368.16;6100952;23;20281;-89
2023/10/29 08:58:40;;;;;;;5.28;2.10;;;;;;;18.33;48.60;92366.38;6124142;23;20092;-88
2023/10/29 09:01:13;;;;;;;4.68;1.90;;;;;;;18.32;48.77;92367.63;6123001;23;20475;-88
2023/10/29 09:03:38;;;;;;;4.93;2.30;;;;;;;18.34;48.89;92375.31;6129552;23;20020;-88
2023/10/29 09:06:04;;;;;;;3.13;1.88;;;;;;;18.34;48.75;92373.31;6098468;23;20017;-89
2023/10/29 09:08:32;;;;;;;4.38;1.92;;;;;;;18.34;48.44;92373.31;6099329;23;20017;-89
2023/10/29 09:10:57;;;;;;;5.50;1.98;;;;;;;18.38;48.65;92376.44;6123764;23;20029;-89
2023/10/29 09:13:23;;;;;;;3.10;1.70;;;;;;;18.34;47.14;92375.31;6127069;23;20013;-88
2023/10/29 09:15:49;;;;;;;6.07;2.00;;;;;;;18.34;46.99;92362.34;6104963;23;20036;-90
2023/10/29 09:18:15;;;;;;;3.60;2.03;;;;;;;18.38;46.23;92362.75;6124898;23;20453;-90
2023/10/29 09:20:40;;;;;;;3.45;2.20;;;;;;;18.32;45.51;92359.41;6099445;23;20022;-89
2023/10/29 09:23:06;;;;;;;8.98;2.30;;;;;;;18.33;45.49;92357.41;6099256;23;20021;-90
2023/10/29 09:25:31;;;;;;;3.00;1.30;;;;;;;18.32;44.92;92353.22;6116773;23;20008;-90
2023/10/29 09:27:58;;;;;;;3.72;1.60;;;;;;;18.34;44.62;92362.34;6123787;23;20025;-88
2023/10/29 09:30:23;;;;;;;5.90;1.73;;;;;;;18.34;44.63;92358.88;6159956;23;20415;-89
2023/10/29 09:32:50;;;;;;;3.75;1.20;;;;;;;18.28;44.22;92350.09;6099169;23;20022;-88
2023/10/29 09:35:15;;;;;;;3.10;1.40;;;;;;;18.29;44.14;92349.53;6134681;23;20017;-89
2023/10/29 09:37:42;;;;;;;3.15;1.55;;;;;;;18.27;43.61;92357.56;6145199;23;20031;-89
2023/10/29 09:40:09;;;;;;;3.22;1.00;;;;;;;18.26;43.65;92349.88;6119233;23;20022;-91
2023/10/29 09:42:34;;;;;;;2.58;1.23;;;;;;;18.26;44.11;92350.63;6122925;23;20504;-88
2023/10/29 09:45:00;;;;;;;2.65;1.15;;;;;;;18.22;43.91;92347.47;6142078;23;20017;-88
2023/10/29 09:47:26;;;;;;;4.90;1.38;;;;;;;18.23;43.86;92348.22;6147385;23;20088;-88
2023/10/29 09:49:54;;;;;;;1.95;1.02;;;;;;;18.22;44.10;92346.75;6123987;23;20473;-88
2023/10/29 09:52:19;;;;;;;2.47;1.10;;;;;;;18.25;43.72;92342.94;6147263;23;20108;-89
2023/10/29 09:54:46;;;;;;;2.75;1.38;;;;;;;18.22;43.59;92347.47;6147805;23;20184;-88
2023/10/29 09:57:12;;;;;;;1.98;0.90;;;;;;;18.24;43.35;92355.16;6152486;23;20453;-90
2023/10/29 09:59:37;;;;;;;3.60;1.17;;;;;;;18.24;43.19;92344.22;6133702;23;20023;-89
2023/10/29 10:02:03;;;;;;;2.75;1.30;;;;;;;18.21;43.25;92348.75;6098950;23;20018;-88
2023/10/29 10:04:28;;;;;;;1.63;0.82;;;;;;;18.24;43.27;92349.69;6136209;23;20017;-88
2023/10/29 10:06:57;;;;;;;1.80;1.13;;;;;;;18.23;43.71;92343.47;6098667;23;20048;-89
2023/10/29 10:09:23;;;;;;;1.42;1.05;;;;;;;18.20;43.39;92350.00;6134509;23;20480;-89
2023/10/29 10:12:04;;;;;;;1.55;1.17;;;;;;;18.21;43.76;92348.00;6123265;23;20021;-91
2023/10/29 10:14:29;;;;;;;;;;;;;;;18.22;43.77;92344.00;6110773;23;20164;-88
2023/10/29 10:17:10;;;;;;;4.15;1.50;;;;;;;18.18;43.58;92341.63;6123205;23;20036;-89
2023/10/29 10:19:36;;;;;;;2.40;1.00;;;;;;;18.21;43.73;92346.00;6086049;23;20013;-91
2023/10/29 10:22:03;;;;;;;4.28;1.13;;;;;;;18.15;43.42;92343.44;6110673;23;20018;-89
2023/10/29 10:24:40;;;;;;;3.20;1.23;;;;;;;18.18;44.26;92335.44;6123557;23;20017;-88
2023/10/29 10:27:06;;;;;;;2.63;1.23;;;;;;;18.22;43.91;92333.78;6098634;23;20080;-88
2023/10/29 10:29:31;;;;;;;57.15;4.97;;;;;;;18.23;43.61;92334.53;6123060;23;20010;-90
2023/10/29 10:32:03;;;;;;;815.10;170.35;;;;;;;18.19;43.84;92342.38;6132182;23;20055;-88
2023/10/29 10:34:37;;;;;;;529.17;87.00;;;;;;;18.23;44.37;92334.53;6128443;23;20017;-88
2023/10/29 10:37:04;;;;;;;39.28;5.93;;;;;;;18.26;43.73;92333.47;6176572;23;20442;-88
2023/10/29 10:39:32;;;;;;;52.92;9.25;;;;;;;18.20;43.65;92339.06;6123372;23;20033;-87
2023/10/29 10:42:00;;;;;;;49.10;7.43;;;;;;;18.14;43.94;92336.50;6140019;23;20032;-87
2023/10/29 10:44:26;;;;;;;20.33;4.18;;;;;;;18.06;43.81;92341.16;6153000;23;20013;-89
2023/10/29 10:46:58;;;;;;;19.00;3.05;;;;;;;18.07;43.87;92339.16;6130037;23;20017;-90
2023/10/29 10:49:24;;;;;;;9.85;2.10;;;;;;;18.12;43.66;92328.09;6170973;23;20330;-88
2023/10/29 10:51:58;;;;;;;11.80;2.10;;;;;;;18.15;43.21;92337.97;6147564;23;20547;-90
2023/10/29 10:54:24;;;;;;;10.13;2.42;;;;;;;18.08;42.65;92332.41;6146992;23;20009;-89
2023/10/29 10:56:51;;;;;;;12.90;1.45;;;;;;;18.09;42.73;92333.88;6122779;23;20311;-88
2023/10/29 10:59:17;;;;;;;4.88;1.10;;;;;;;18.04;42.76;92330.00;6146782;23;20021;-88
2023/10/29 11:01:42;;;;;;;4.25;1.00;;;;;;;17.99;42.33;92339.06;6123300;23;20010;-90
2023/10/29 11:04:09;;;;;;;8.15;1.05;;;;;;;18.02;42.01;92326.34;6122198;23;20014;-87
2023/10/29 11:06:36;;;;;;;1.92;0.88;;;;;;;18.07;42.21;92328.94;6122791;23;20352;-88
2023/10/29 11:09:02;;;;;;;2.58;0.77;;;;;;;18.10;41.90;92325.16;6147606;23;20021;-90
2023/10/29 11:11:45;;;;;;;4.70;1.10;;;;;;;17.99;42.14;92328.13;6147683;23;20013;-89
2023/10/29 11:14:11;;;;;;;3.13;0.90;;;;;;;17.91;42.31;92327.38;6145506;23;20022;-90
2023/10/29 11:16:55;;;;;;;2.20;0.80;;;;;;;17.96;42.73;92336.69;6147977;23;20037;-89
2023/10/29 11:19:44;;;;;;;3.97;0.82;;;;;;;17.95;42.69;92337.97;6172959;23;20029;-89
2023/10/29 11:22:22;;;;;;;1.70;0.80;;;;;;;17.97;42.38;92332.69;6175569;23;20048;-88
2023/10/29 11:25:10;;;;;;;4.32;1.05;;;;;;;17.96;42.82;92342.91;6122747;23;20483;-90
2023/10/29 11:27:46;;;;;;;2.45;0.93;;;;;;;17.97;43.32;92351.84;6201443;23;20025;-88
2023/10/29 11:30:15;;;;;;;4.05;1.15;;;;;;;17.97;43.16;92366.22;6129324;23;20021;-88